Time;durP1;ratioP1;P1;durP2;ratioP2;P2;SDS_P1;SDS_P2;PMS_P1;PMS_P2;Temp;Humidity;BMP_temperature;BMP_pressure;BME280_temperature;BME280_humidity;BME280_pressure;Samples;Min_cycle;Max_cycle;Signal;HPM_P1;HPM_P2
2021/08/02 00:00:04;;;;;;;1.98;0.88;;;24.30;53.00;;;;;;5046592;28;20049;-44
2021/08/02 00:02:48;;;;;;;0.85;0.80;;;24.30;53.00;;;;;;5052087;28;20047;-44
2021/08/02 00:05:14;;;;;;;1.80;0.93;;;24.30;52.90;;;;;;5050244;28;20025;-44
2021/08/02 00:07:41;;;;;;;0.63;0.60;;;24.30;52.90;;;;;;5051457;28;20095;-45
2021/08/02 00:10:13;;;;;;;1.75;1.10;;;24.30;52.90;;;;;;5051210;28;20032;-50
2021/08/02 00:12:50;;;;;;;1.70;0.90;;;24.30;52.90;;;;;;5050444;28;20033;-45
2021/08/02 00:15:19;;;;;;;1.23;0.95;;;24.30;52.90;;;;;;5050972;28;20037;-45
2021/08/02 00:17:46;;;;;;;2.03;1.20;;;24.30;52.90;;;;;;5051462;28;20346;-44
2021/08/02 00:20:16;;;;;;;1.48;1.00;;;24.30;52.90;;;;;;5055010;28;20027;-54
2021/08/02 00:22:41;;;;;;;1.40;0.80;;;24.30;52.90;;;;;;5058774;28;20116;-44
2021/08/02 00:25:08;;;;;;;1.35;0.95;;;24.30;52.80;;;;;;5051285;28;20104;-47
2021/08/02 00:27:33;;;;;;;1.30;0.80;;;24.30;52.90;;;;;;5050839;28;20473;-44
2021/08/02 00:30:01;;;;;;;1.83;1.00;;;24.30;53.00;;;;;;5051566;28;20113;-45
2021/08/02 00:32:27;;;;;;;1.00;0.73;;;24.30;53.00;;;;;;5060755;28;20442;-46
2021/08/02 00:34:52;;;;;;;1.73;0.75;;;24.30;53.00;;;;;;5063091;28;20031;-45
2021/08/02 00:37:30;;;;;;;1.90;1.00;;;24.30;53.10;;;;;;5050438;28;20429;-45
2021/08/02 00:40:05;;;;;;;1.00;0.90;;;24.30;53.00;;;;;;5051375;28;20036;-45
2021/08/02 00:42:59;;;;;;;1.08;0.75;;;24.30;53.10;;;;;;5061196;28;20036;-45
2021/08/02 00:45:30;;;;;;;1.45;0.90;;;24.30;53.10;;;;;;5070565;28;20119;-45
2021/08/02 00:48:07;;;;;;;;;;;24.30;53.10;;;;;;5071566;28;20029;-45
2021/08/02 00:50:38;;;;;;;1.00;0.82;;;24.30;53.00;;;;;;5054146;28;19913;-45
2021/08/02 00:53:34;;;;;;;1.53;1.00;;;24.30;53.00;;;;;;5051619;28;20056;-45
2021/08/02 00:56:03;;;;;;;1.27;0.95;;;24.30;53.10;;;;;;5049300;28;20124;-46
2021/08/02 00:58:33;;;;;;;1.15;0.70;;;24.30;53.00;;;;;;5053933;28;20102;-46
2021/08/02 01:01:00;;;;;;;1.60;0.85;;;24.30;53.10;;;;;;5054567;28;20060;-47
2021/08/02 01:03:29;;;;;;;1.00;0.90;;;24.30;53.10;;;;;;5071469;28;20029;-44
2021/08/02 01:05:54;;;;;;;2.42;0.80;;;24.30;53.10;;;;;;5074309;28;20033;-45
2021/08/02 01:08:28;;;;;;;0.80;0.70;;;24.30;53.10;;;;;;5064621;28;20585;-45
2021/08/02 01:11:01;;;;;;;2.15;1.10;;;24.30;53.10;;;;;;5046935;28;20037;-44
2021/08/02 01:13:29;;;;;;;1.40;1.00;;;24.30;53.00;;;;;;5071213;28;20040;-45
2021/08/02 01:16:00;;;;;;;2.28;0.90;;;24.30;53.00;;;;;;5074240;28;20032;-45
2021/08/02 01:18:25;;;;;;;1.10;0.52;;;24.30;53.10;;;;;;5073698;28;20432;-50
2021/08/02 01:20:53;;;;;;;1.52;1.13;;;24.30;53.10;;;;;;5055580;28;20028;-44
2021/08/02 01:23:21;;;;;;;1.25;1.13;;;24.30;53.10;;;;;;5053961;28;20055;-45
2021/08/02 01:25:49;;;;;;;1.50;0.90;;;24.30;53.10;;;;;;5062056;28;20044;-44
2021/08/02 01:28:14;;;;;;;1.92;0.90;;;24.20;53.00;;;;;;5053657;28;20025;-45
2021/08/02 01:30:50;;;;;;;1.52;1.00;;;24.30;53.10;;;;;;5054672;28;20378;-44
2021/08/02 01:33:18;;;;;;;2.08;1.00;;;24.20;53.10;;;;;;5053301;28;20413;-45
2021/08/02 01:35:45;;;;;;;2.35;1.15;;;24.30;53.20;;;;;;5073671;28;20122;-46
2021/08/02 01:38:15;;;;;;;1.80;0.98;;;24.20;53.10;;;;;;5074204;28;20029;-53
2021/08/02 01:40:41;;;;;;;1.67;1.00;;;24.30;53.10;;;;;;5074580;28;20112;-44
2021/08/02 01:43:08;;;;;;;1.15;0.85;;;24.20;53.10;;;;;;5059669;28;20064;-45
2021/08/02 01:46:00;;;;;;;2.47;0.85;;;24.30;53.10;;;;;;5053472;28;20090;-44
2021/08/02 01:48:41;;;;;;;1.30;1.05;;;24.30;53.20;;;;;;5053308;28;20111;-44
2021/08/02 01:51:22;;;;;;;1.63;0.73;;;24.20;53.10;;;;;;5053923;28;20083;-44
2021/08/02 01:54:24;;;;;;;1.20;0.70;;;24.30;53.20;;;;;;5073653;28;20035;-44
2021/08/02 01:57:01;;;;;;;1.30;1.15;;;24.20;53.20;;;;;;5074101;28;20039;-45
2021/08/02 01:59:33;;;;;;;2.47;0.93;;;24.30;53.30;;;;;;5072271;28;20458;-46
2021/08/02 02:02:09;;;;;;;1.75;0.80;;;24.30;53.20;;;;;;5062586;28;20033;-45
2021/08/02 02:04:48;;;;;;;1.00;0.90;;;24.20;53.80;;;;;;5050651;28;20795;-45
2021/08/02 02:07:15;;;;;;;2.30;0.80;;;24.20;53.20;;;;;;5053396;28;20034;-51
2021/08/02 02:09:41;;;;;;;1.25;0.90;;;24.30;53.30;;;;;;5053522;28;20155;-44
2021/08/02 02:12:09;;;;;;;1.30;0.80;;;24.20;53.10;;;;;;5058434;28;20469;-44
2021/08/02 02:14:38;;;;;;;2.92;0.93;;;24.20;53.10;;;;;;5067115;28;20592;-45
2021/08/02 02:17:04;;;;;;;2.08;1.05;;;24.20;53.30;;;;;;5053445;28;20087;-45
2021/08/02 02:19:31;;;;;;;1.10;0.80;;;24.20;53.30;;;;;;5053155;28;20032;-46
2021/08/02 02:21:59;;;;;;;0.88;0.80;;;24.20;53.20;;;;;;5053682;28;20021;-46
2021/08/02 02:24:26;;;;;;;1.02;0.80;;;24.20;53.30;;;;;;5052601;28;20068;-47
2021/08/02 02:26:54;;;;;;;1.77;0.90;;;24.20;53.30;;;;;;5053521;28;20025;-45
2021/08/02 02:29:20;;;;;;;2.38;0.70;;;24.30;53.30;;;;;;5067628;28;20033;-45
2021/08/02 02:31:47;;;;;;;1.45;0.75;;;24.30;53.30;;;;;;5071197;28;20032;-45
2021/08/02 02:34:14;;;;;;;1.88;0.93;;;24.20;53.40;;;;;;5052828;28;20033;-52
2021/08/02 02:36:41;;;;;;;2.10;0.85;;;24.20;53.30;;;;;;5052752;28;20043;-44
2021/08/02 02:39:07;;;;;;;1.30;0.90;;;24.20;53.30;;;;;;5053111;28;20047;-44
2021/08/02 02:41:34;;;;;;;1.75;0.63;;;24.20;53.30;;;;;;5055652;28;20036;-44
2021/08/02 02:44:01;;;;;;;1.30;0.90;;;24.30;53.40;;;;;;5072884;28;20120;-49
2021/08/02 02:46:28;;;;;;;1.23;1.00;;;24.20;53.30;;;;;;5052265;28;20036;-44
2021/08/02 02:48:57;;;;;;;1.85;0.93;;;24.30;53.40;;;;;;5051566;28;20029;-45
2021/08/02 02:51:26;;;;;;;1.60;1.30;;;24.20;53.30;;;;;;5066477;28;20071;-45
2021/08/02 02:53:53;;;;;;;1.98;1.20;;;24.20;53.30;;;;;;5052959;28;20043;-45
2021/08/02 02:56:19;;;;;;;0.88;0.70;;;24.20;53.30;;;;;;5068036;28;20158;-45
2021/08/02 02:58:46;;;;;;;1.15;0.90;;;24.30;53.40;;;;;;5072332;28;20086;-44
2021/08/02 03:01:22;;;;;;;2.67;0.80;;;24.20;53.30;;;;;;5072160;28;20048;-45
2021/08/02 03:03:51;;;;;;;0.98;0.82;;;24.20;53.30;;;;;;5052559;28;20032;-45
2021/08/02 03:06:18;;;;;;;1.25;0.73;;;24.20;53.40;;;;;;5051705;28;20029;-52
2021/08/02 03:08:45;;;;;;;1.58;1.15;;;24.20;53.40;;;;;;5052268;28;20028;-49
2021/08/02 03:11:14;;;;;;;1.23;0.80;;;24.20;53.30;;;;;;5052283;28;20060;-44
2021/08/02 03:13:40;;;;;;;1.33;0.70;;;24.20;53.40;;;;;;5051907;28;20050;-48
2021/08/02 03:16:06;;;;;;;1.55;0.95;;;24.30;53.40;;;;;;5050532;28;20044;-45
2021/08/02 03:18:35;;;;;;;2.55;0.98;;;24.30;53.50;;;;;;5050472;28;20039;-45
2021/08/02 03:21:02;;;;;;;1.60;0.88;;;24.20;53.30;;;;;;5051315;28;20402;-45
2021/08/02 03:24:01;;;;;;;2.42;1.40;;;24.20;53.30;;;;;;5069625;28;20024;-44
2021/08/02 03:26:38;;;;;;;1.63;0.80;;;24.20;53.30;;;;;;5066041;28;20037;-44
2021/08/02 03:29:19;;;;;;;2.28;0.82;;;24.20;53.30;;;;;;5052126;28;20064;-44
2021/08/02 03:31:50;;;;;;;0.93;0.70;;;24.30;53.40;;;;;;5065840;28;20028;-45
2021/08/02 03:34:23;;;;;;;2.55;0.85;;;24.20;53.40;;;;;;5051886;28;20021;-52
2021/08/02 03:36:51;;;;;;;2.55;1.00;;;24.20;53.30;;;;;;5052033;28;20094;-45
2021/08/02 03:39:20;;;;;;;3.50;1.20;;;24.20;53.30;;;;;;5051167;28;20037;-51
2021/08/02 03:41:46;;;;;;;1.08;0.80;;;24.20;53.40;;;;;;5055289;28;20021;-44
2021/08/02 03:44:14;;;;;;;2.15;1.05;;;24.20;53.40;;;;;;5069616;28;20045;-48
2021/08/02 03:46:41;;;;;;;3.78;0.80;;;24.20;53.30;;;;;;5051152;28;20083;-44
2021/08/02 03:49:07;;;;;;;1.23;0.75;;;24.20;53.40;;;;;;5052163;28;20112;-44
2021/08/02 03:51:44;;;;;;;1.80;0.80;;;24.20;53.30;;;;;;5052672;28;20056;-45
2021/08/02 03:54:11;;;;;;;1.60;1.08;;;24.20;53.30;;;;;;5071804;28;20037;-46
2021/08/02 03:56:39;;;;;;;2.50;0.60;;;24.30;53.30;;;;;;5071280;28;20028;-45
2021/08/02 03:59:05;;;;;;;1.67;0.60;;;24.20;53.30;;;;;;5071667;28;20131;-45
2021/08/02 04:01:41;;;;;;;3.65;1.00;;;24.30;53.40;;;;;;5066927;28;20112;-45
2021/08/02 04:04:07;;;;;;;2.47;1.00;;;24.20;53.30;;;;;;5051693;28;20048;-45
2021/08/02 04:06:34;;;;;;;1.08;0.75;;;24.20;53.40;;;;;;5050903;28;20032;-45
2021/08/02 04:09:03;;;;;;;3.58;0.93;;;24.20;53.40;;;;;;5051622;28;20090;-45
2021/08/02 04:11:28;;;;;;;2.80;0.82;;;24.20;53.60;;;;;;5054105;28;20021;-48
2021/08/02 04:13:54;;;;;;;2.60;1.10;;;24.20;53.40;;;;;;5071631;28;20024;-44
2021/08/02 04:16:19;;;;;;;1.02;0.80;;;24.20;53.40;;;;;;5051503;28;20040;-52
2021/08/02 04:18:45;;;;;;;1.35;0.70;;;24.20;53.40;;;;;;5051506;28;20076;-46
2021/08/02 04:21:11;;;;;;;0.93;0.75;;;24.20;53.30;;;;;;5054588;28;20043;-45
2021/08/02 04:23:36;;;;;;;0.90;0.80;;;24.20;53.40;;;;;;5070776;28;20042;-45
2021/08/02 04:26:02;;;;;;;3.13;1.13;;;24.20;53.40;;;;;;5071574;28;20068;-44
2021/08/02 04:28:28;;;;;;;1.73;0.90;;;24.20;53.40;;;;;;5071301;28;20020;-45
2021/08/02 04:30:53;;;;;;;1.58;0.82;;;24.20;53.40;;;;;;5074617;28;20461;-44
2021/08/02 04:33:19;;;;;;;1.50;1.10;;;24.20;53.30;;;;;;5074845;28;20078;-54
2021/08/02 04:35:45;;;;;;;0.77;0.73;;;24.30;53.50;;;;;;5074080;28;20388;-44
2021/08/02 04:38:10;;;;;;;1.30;0.90;;;24.20;53.40;;;;;;5066431;28;20025;-45
2021/08/02 04:40:36;;;;;;;1.20;0.90;;;24.20;53.40;;;;;;5055751;28;20107;-44
2021/08/02 04:43:03;;;;;;;1.92;0.90;;;24.20;54.10;;;;;;5055285;28;20029;-44
2021/08/02 04:45:28;;;;;;;1.17;0.90;;;24.20;53.40;;;;;;5054166;28;20040;-45
2021/08/02 04:47:54;;;;;;;1.95;0.90;;;24.20;53.40;;;;;;5059940;28;20028;-44
2021/08/02 04:50:20;;;;;;;1.05;0.88;;;24.20;54.10;;;;;;5074744;28;20106;-51
2021/08/02 04:52:47;;;;;;;2.17;0.95;;;24.20;53.40;;;;;;5074817;28;20473;-45
2021/08/02 04:55:13;;;;;;;1.38;0.70;;;24.20;53.40;;;;;;5075028;28;20460;-45
2021/08/02 04:57:39;;;;;;;2.70;0.93;;;24.20;53.40;;;;;;5063786;28;20021;-46
2021/08/02 05:00:06;;;;;;;1.40;1.00;;;24.20;53.40;;;;;;5054825;28;20048;-45
2021/08/02 05:02:32;;;;;;;1.48;0.90;;;24.20;53.30;;;;;;5072075;28;20033;-45
2021/08/02 05:04:57;;;;;;;4.47;1.08;;;24.20;53.40;;;;;;5074965;28;20050;-44
2021/08/02 05:07:23;;;;;;;0.88;0.73;;;24.20;53.50;;;;;;5072440;28;20504;-45
2021/08/02 05:09:49;;;;;;;1.35;0.90;;;24.20;53.30;;;;;;5054686;28;20021;-45
2021/08/02 05:12:16;;;;;;;1.65;0.90;;;24.20;53.40;;;;;;5066034;28;20032;-45
2021/08/02 05:14:41;;;;;;;1.20;0.80;;;24.20;53.40;;;;;;5073888;28;20288;-44
2021/08/02 05:17:07;;;;;;;1.13;0.75;;;24.20;53.50;;;;;;5071410;28;20151;-46
2021/08/02 05:19:33;;;;;;;2.92;0.80;;;24.20;53.40;;;;;;5054787;28;20112;-47
2021/08/02 05:21:59;;;;;;;1.15;0.80;;;24.20;53.40;;;;;;5067412;28;20374;-45
2021/08/02 05:24:25;;;;;;;1.45;0.82;;;24.20;53.40;;;;;;5072553;28;20107;-47
2021/08/02 05:26:50;;;;;;;1.40;0.90;;;24.30;53.80;;;;;;5074154;28;20426;-47
2021/08/02 05:29:16;;;;;;;2.63;0.93;;;24.30;54.20;;;;;;5054477;28;20029;-44
2021/08/02 05:31:42;;;;;;;2.42;0.70;;;24.30;54.50;;;;;;5053347;28;20462;-44
2021/08/02 05:34:07;;;;;;;3.30;0.80;;;24.30;54.80;;;;;;5054453;28;20025;-46
2021/08/02 05:36:33;;;;;;;2.42;0.90;;;24.30;54.90;;;;;;5053243;28;20039;-44
2021/08/02 05:38:59;;;;;;;5.60;0.77;;;24.30;55.30;;;;;;5069480;28;20029;-45
2021/08/02 05:41:24;;;;;;;3.80;0.80;;;24.30;55.40;;;;;;5072780;28;20520;-44
2021/08/02 05:43:50;;;;;;;6.32;1.42;;;24.30;55.80;;;;;;5074244;28;20036;-44
2021/08/02 05:46:16;;;;;;;8.07;1.65;;;24.30;55.90;;;;;;5073864;28;20032;-46
2021/08/02 05:48:43;;;;;;;5.35;1.10;;;24.30;56.20;;;;;;5058436;28;20041;-45
2021/08/02 05:51:09;;;;;;;4.55;1.38;;;24.30;56.40;;;;;;5053959;28;20021;-46
2021/08/02 05:53:35;;;;;;;7.70;1.50;;;24.30;56.00;;;;;;5053401;28;20029;-45
2021/08/02 05:56:00;;;;;;;12.82;1.48;;;24.30;56.20;;;;;;5053929;28;20039;-44
2021/08/02 05:58:26;;;;;;;5.55;1.23;;;24.40;56.00;;;;;;5064650;28;20088;-48
2021/08/02 06:00:52;;;;;;;6.18;1.02;;;24.40;55.90;;;;;;5074144;28;20052;-45
2021/08/02 06:03:18;;;;;;;3.33;1.30;;;24.30;56.20;;;;;;5073634;28;20099;-44
2021/08/02 06:05:44;;;;;;;6.90;1.20;;;24.30;56.10;;;;;;5066326;28;20036;-44
2021/08/02 06:08:09;;;;;;;7.85;1.25;;;24.40;56.10;;;;;;5066174;28;20036;-44
2021/08/02 06:10:37;;;;;;;4.53;1.30;;;24.30;56.40;;;;;;5054621;28;20025;-44
2021/08/02 06:13:02;;;;;;;9.57;1.70;;;24.30;56.30;;;;;;5053806;28;20109;-46
2021/08/02 06:15:28;;;;;;;3.13;1.27;;;24.40;56.30;;;;;;5052155;28;20114;-45
2021/08/02 06:17:53;;;;;;;4.75;1.20;;;23.60;53.60;;;;;;5056437;28;20531;-46
2021/08/02 06:20:19;;;;;;;5.63;1.20;;;22.70;55.70;;;;;;5045125;28;20033;-45
2021/08/02 06:22:45;;;;;;;4.30;1.20;;;22.30;56.90;;;;;;5032682;28;20025;-50
2021/08/02 06:25:10;;;;;;;3.28;1.20;;;22.20;56.80;;;;;;5033516;28;20033;-45
2021/08/02 06:27:36;;;;;;;3.17;1.40;;;22.00;57.40;;;;;;5048408;28;20460;-46
2021/08/02 06:30:03;;;;;;;2.40;1.05;;;22.00;57.30;;;;;;5073355;28;20037;-45
2021/08/02 06:32:29;;;;;;;3.75;1.60;;;21.90;57.50;;;;;;5072444;28;20347;-46
2021/08/02 06:34:55;;;;;;;5.20;1.10;;;21.90;57.70;;;;;;5073426;28;20049;-46
2021/08/02 06:37:23;;;;;;;2.28;1.17;;;21.80;58.10;;;;;;5062476;28;20024;-47
2021/08/02 06:39:49;;;;;;;3.13;1.50;;;21.70;58.20;;;;;;5072593;28;20040;-44
2021/08/02 06:42:15;;;;;;;3.95;1.23;;;21.80;58.20;;;;;;5072303;28;20032;-44
2021/08/02 06:44:41;;;;;;;4.82;1.33;;;21.70;58.20;;;;;;5072163;28;20116;-49
2021/08/02 06:47:07;;;;;;;1.50;0.90;;;22.20;57.50;;;;;;5059119;28;20032;-47
2021/08/02 06:49:33;;;;;;;3.25;1.15;;;22.10;57.30;;;;;;5071973;28;20064;-45
2021/08/02 06:51:58;;;;;;;3.15;1.08;;;22.00;57.40;;;;;;5071928;28;20028;-44
2021/08/02 06:54:24;;;;;;;2.25;0.90;;;22.50;56.60;;;;;;5072519;28;20350;-52
2021/08/02 06:56:50;;;;;;;1.77;1.10;;;23.00;55.20;;;;;;5070770;28;20036;-45
2021/08/02 06:59:15;;;;;;;3.05;1.10;;;23.30;54.70;;;;;;5051993;28;20049;-44
2021/08/02 07:01:41;;;;;;;1.90;1.20;;;23.50;54.80;;;;;;5054971;28;20104;-44
2021/08/02 07:04:06;;;;;;;1.85;0.80;;;23.60;54.60;;;;;;5058866;28;20016;-44
2021/08/02 07:06:32;;;;;;;1.50;0.93;;;23.70;54.50;;;;;;5071645;28;20090;-44
2021/08/02 07:08:58;;;;;;;1.27;0.85;;;23.80;54.20;;;;;;5054043;28;20462;-45
2021/08/02 07:11:27;;;;;;;1.42;0.80;;;23.80;54.10;;;;;;5056149;28;20025;-44
2021/08/02 07:13:54;;;;;;;1.35;0.95;;;23.90;54.10;;;;;;5051317;28;20049;-45
2021/08/02 07:16:23;;;;;;;3.83;1.00;;;23.90;54.00;;;;;;5052542;28;20033;-44
2021/08/02 07:18:51;;;;;;;2.25;1.10;;;23.90;54.00;;;;;;5052488;28;20028;-45
2021/08/02 07:21:18;;;;;;;4.50;1.05;;;23.90;54.00;;;;;;5052695;28;20043;-45
2021/08/02 07:23:44;;;;;;;5.35;1.63;;;23.90;53.80;;;;;;5051545;28;20021;-45
2021/08/02 07:26:09;;;;;;;3.00;1.30;;;23.90;54.10;;;;;;5052502;28;20032;-45
2021/08/02 07:28:35;;;;;;;2.08;1.25;;;24.00;54.20;;;;;;5059664;28;20518;-45
2021/08/02 07:31:01;;;;;;;2.45;1.27;;;23.90;53.90;;;;;;5051755;28;20029;-44
2021/08/02 07:33:27;;;;;;;3.67;1.20;;;24.00;54.10;;;;;;5047330;28;20508;-45
2021/08/02 07:35:53;;;;;;;1.67;1.00;;;24.00;54.10;;;;;;5055562;28;20071;-46
2021/08/02 07:38:18;;;;;;;5.32;1.63;;;24.00;54.30;;;;;;5061241;28;20053;-45
2021/08/02 07:40:44;;;;;;;4.40;1.17;;;24.00;54.00;;;;;;5065443;28;20028;-44
2021/08/02 07:43:10;;;;;;;4.10;1.33;;;24.00;54.10;;;;;;5071837;28;20530;-48
2021/08/02 07:45:35;;;;;;;2.03;0.95;;;24.00;54.20;;;;;;5064938;28;20041;-45
2021/08/02 07:48:01;;;;;;;3.65;1.05;;;24.00;54.10;;;;;;5051897;28;20031;-45
2021/08/02 07:50:27;;;;;;;4.57;1.23;;;24.10;54.20;;;;;;5051669;28;20394;-51
2021/08/02 07:52:53;;;;;;;2.50;0.88;;;24.10;54.20;;;;;;5051073;28;20033;-45
2021/08/02 07:55:18;;;;;;;5.45;1.27;;;24.10;54.50;;;;;;5054725;28;20496;-46
2021/08/02 07:57:44;;;;;;;1.27;0.90;;;24.10;55.10;;;;;;5070490;28;20032;-45
2021/08/02 08:00:11;;;;;;;5.35;1.10;;;24.10;54.50;;;;;;5052646;28;20049;-51
2021/08/02 08:02:37;;;;;;;2.10;0.82;;;24.10;54.60;;;;;;5050836;28;20097;-45
2021/08/02 08:05:03;;;;;;;3.05;1.00;;;24.10;54.70;;;;;;5067330;28;20049;-46
2021/08/02 08:07:28;;;;;;;3.47;1.13;;;24.10;54.60;;;;;;5051406;28;20108;-51
2021/08/02 08:09:54;;;;;;;2.78;1.25;;;24.10;54.30;;;;;;5051339;28;20033;-44
2021/08/02 08:12:20;;;;;;;3.00;1.20;;;24.10;54.40;;;;;;5070805;28;20102;-48
2021/08/02 08:14:45;;;;;;;4.82;1.60;;;24.10;54.30;;;;;;5070705;28;20390;-46
2021/08/02 08:17:11;;;;;;;4.50;1.67;;;24.10;54.20;;;;;;5053174;28;20036;-47
2021/08/02 08:19:36;;;;;;;6.05;1.48;;;24.10;54.20;;;;;;5050322;28;20470;-45
2021/08/02 08:22:02;;;;;;;1.90;1.00;;;24.10;54.30;;;;;;5051439;28;20032;-46
2021/08/02 08:24:28;;;;;;;2.75;1.10;;;24.10;54.20;;;;;;5050790;28;20063;-52
2021/08/02 08:26:54;;;;;;;1.70;0.90;;;24.20;53.90;;;;;;5063598;28;20412;-47
2021/08/02 08:29:20;;;;;;;2.38;1.10;;;24.20;54.10;;;;;;5050772;28;20025;-45
2021/08/02 08:31:45;;;;;;;5.45;1.77;;;24.10;54.30;;;;;;5053933;28;20044;-47
2021/08/02 08:34:11;;;;;;;3.03;1.10;;;24.20;54.30;;;;;;5051297;28;20060;-44
2021/08/02 08:36:37;;;;;;;4.55;1.27;;;24.20;54.20;;;;;;5050232;28;20120;-46
2021/08/02 08:39:04;;;;;;;1.27;0.80;;;24.20;54.30;;;;;;5050888;28;20025;-51
2021/08/02 08:41:30;;;;;;;1.42;0.90;;;24.20;54.40;;;;;;5063609;28;20032;-53
2021/08/02 08:43:55;;;;;;;4.20;1.25;;;24.20;54.50;;;;;;5070686;28;20435;-45
2021/08/02 08:46:23;;;;;;;2.78;1.55;;;24.20;54.20;;;;;;5058889;28;20076;-53
2021/08/02 08:48:50;;;;;;;1.10;0.98;;;24.20;54.10;;;;;;5050290;28;20032;-45
2021/08/02 08:51:16;;;;;;;5.03;1.38;;;24.20;54.10;;;;;;5050820;28;20029;-46
2021/08/02 08:53:43;;;;;;;2.90;0.93;;;24.20;54.90;;;;;;5050422;28;20040;-45
2021/08/02 08:56:14;;;;;;;2.90;0.98;;;24.20;54.30;;;;;;5060968;28;20103;-44
2021/08/02 08:58:40;;;;;;;1.83;0.90;;;24.20;54.10;;;;;;5062221;28;20071;-46
2021/08/02 09:01:06;;;;;;;1.25;0.90;;;24.20;54.30;;;;;;5060951;28;20147;-45
2021/08/02 09:03:32;;;;;;;2.13;0.90;;;24.20;53.80;;;;;;5069825;28;20044;-52
2021/08/02 09:06:06;;;;;;;3.47;0.80;;;24.20;53.90;;;;;;5062029;28;20037;-46
2021/08/02 09:08:42;;;;;;;1.83;0.82;;;24.20;54.10;;;;;;5050585;28;20040;-53
2021/08/02 09:11:08;;;;;;;1.30;0.90;;;24.20;54.00;;;;;;5049091;28;20025;-45
2021/08/02 09:13:36;;;;;;;2.22;1.30;;;24.20;53.30;;;;;;5051640;28;20020;-48
2021/08/02 09:16:25;;;;;;;2.65;0.90;;;24.20;53.00;;;;;;5062525;28;20044;-45
2021/08/02 09:19:03;;;;;;;2.90;1.10;;;24.20;53.30;;;;;;5073933;28;20096;-45
2021/08/02 09:21:41;;;;;;;2.90;0.90;;;24.10;52.80;;;;;;5074244;28;20025;-44
2021/08/02 09:24:07;;;;;;;10.60;1.42;;;24.10;52.70;;;;;;5074520;28;20369;-45
2021/08/02 09:26:35;;;;;;;1.90;0.90;;;24.10;52.90;;;;;;5044895;28;20041;-52
2021/08/02 09:29:02;;;;;;;2.67;1.05;;;24.20;53.00;;;;;;5034415;28;20026;-44
2021/08/02 09:31:40;;;;;;;2.58;1.35;;;24.20;52.90;;;;;;5034713;28;20108;-46
2021/08/02 09:34:07;;;;;;;1.05;0.90;;;24.20;53.80;;;;;;5054558;28;20378;-48
2021/08/02 09:36:43;;;;;;;2.05;0.90;;;24.20;53.40;;;;;;5067823;28;20408;-52
2021/08/02 09:39:13;;;;;;;3.88;1.00;;;24.20;53.10;;;;;;5074214;28;20025;-47
2021/08/02 09:41:39;;;;;;;2.42;1.10;;;24.20;53.80;;;;;;5073048;28;20052;-46
2021/08/02 09:44:06;;;;;;;1.38;0.90;;;24.20;53.00;;;;;;5060272;28;20029;-45
2021/08/02 09:46:32;;;;;;;2.10;1.00;;;24.20;52.70;;;;;;5053398;28;20119;-52
2021/08/02 09:49:03;;;;;;;1.15;0.90;;;24.20;52.50;;;;;;5053545;28;20029;-46
2021/08/02 09:51:41;;;;;;;2.63;0.68;;;24.20;52.50;;;;;;5054122;28;20045;-46
2021/08/02 09:54:07;;;;;;;1.60;0.70;;;24.20;52.30;;;;;;5054950;28;20426;-45
2021/08/02 09:56:33;;;;;;;1.20;0.95;;;24.20;52.70;;;;;;5053791;28;20067;-52
2021/08/02 09:58:58;;;;;;;0.88;0.70;;;24.20;53.20;;;;;;5053906;28;20473;-46
2021/08/02 10:01:24;;;;;;;1.67;0.80;;;24.20;52.70;;;;;;5053744;28;20036;-47
2021/08/02 10:03:50;;;;;;;1.80;0.80;;;24.20;52.70;;;;;;5057637;28;20056;-48
2021/08/02 10:06:16;;;;;;;1.00;0.80;;;24.20;52.60;;;;;;5073116;28;20119;-47
2021/08/02 10:08:43;;;;;;;2.00;0.70;;;24.20;52.60;;;;;;5070797;28;20059;-46
2021/08/02 10:11:09;;;;;;;2.83;0.88;;;24.20;52.10;;;;;;5062604;28;20094;-44
2021/08/02 10:13:43;;;;;;;2.42;1.60;;;24.20;52.10;;;;;;5072934;28;20470;-53
2021/08/02 10:16:22;;;;;;;2.60;1.02;;;24.20;52.20;;;;;;5061049;28;20067;-44
2021/08/02 10:18:51;;;;;;;2.95;1.20;;;24.20;52.10;;;;;;5052606;28;20385;-44
2021/08/02 10:21:18;;;;;;;1.58;0.90;;;24.20;51.60;;;;;;5065566;28;20496;-44
2021/08/02 10:23:44;;;;;;;4.70;2.45;;;24.20;52.10;;;;;;5059931;28;20064;-45
2021/08/02 10:26:20;;;;;;;3.70;1.05;;;24.20;52.50;;;;;;5052231;28;20393;-44
2021/08/02 10:29:00;;;;;;;1.02;0.73;;;24.20;52.70;;;;;;5052499;28;20106;-44
2021/08/02 10:31:27;;;;;;;1.08;0.88;;;24.20;52.90;;;;;;5059194;28;20037;-46
2021/08/02 10:33:54;;;;;;;2.88;1.08;;;24.20;52.80;;;;;;5072461;28;20035;-45
2021/08/02 10:36:20;;;;;;;1.40;0.90;;;24.20;53.00;;;;;;5060137;28;20501;-44
2021/08/02 10:38:53;;;;;;;5.65;1.25;;;24.20;53.00;;;;;;5052248;28;20029;-45
2021/08/02 10:41:29;;;;;;;1.63;0.80;;;24.20;53.00;;;;;;5064492;28;20028;-45
2021/08/02 10:43:54;;;;;;;1.83;0.73;;;24.20;53.20;;;;;;5070858;28;20025;-44
2021/08/02 10:46:21;;;;;;;2.25;0.85;;;24.20;53.30;;;;;;5070326;28;20086;-44
2021/08/02 10:48:49;;;;;;;2.03;0.70;;;24.20;53.60;;;;;;5066056;28;20417;-44
2021/08/02 10:51:19;;;;;;;1.52;0.88;;;24.20;53.60;;;;;;5052686;28;20025;-44
2021/08/02 10:54:02;;;;;;;1.05;0.70;;;24.20;53.70;;;;;;5052067;28;20035;-44
2021/08/02 10:56:32;;;;;;;1.33;0.80;;;24.30;53.80;;;;;;5052711;28;20032;-44
2021/08/02 10:59:00;;;;;;;2.53;1.13;;;24.30;53.80;;;;;;5057122;28;20107;-44
2021/08/02 11:01:27;;;;;;;1.30;1.08;;;24.20;54.00;;;;;;5071587;28;20823;-45
2021/08/02 11:03:57;;;;;;;1.95;1.10;;;24.20;54.00;;;;;;5071480;28;20025;-48
2021/08/02 11:06:26;;;;;;;1.27;0.70;;;24.20;54.00;;;;;;5072029;28;20032;-46
2021/08/02 11:08:57;;;;;;;2.17;0.80;;;24.30;54.20;;;;;;5066943;28;20032;-44
2021/08/02 11:11:30;;;;;;;4.75;1.23;;;24.30;54.10;;;;;;5063766;28;20111;-47
2021/08/02 11:14:20;;;;;;;2.00;1.00;;;24.30;54.20;;;;;;5067852;28;20021;-45
2021/08/02 11:16:50;;;;;;;1.33;0.90;;;24.30;54.40;;;;;;5051383;28;20037;-45
2021/08/02 11:19:29;;;;;;;1.27;0.88;;;24.30;54.80;;;;;;5055778;28;20029;-47
2021/08/02 11:21:58;;;;;;;1.70;1.00;;;24.30;54.70;;;;;;5051006;28;20028;-45
2021/08/02 11:24:53;;;;;;;1.73;0.70;;;24.30;54.90;;;;;;5052223;28;20087;-46
2021/08/02 11:27:19;;;;;;;2.10;0.90;;;24.30;55.40;;;;;;5047381;28;20037;-48
2021/08/02 11:29:50;;;;;;;1.27;0.82;;;24.30;55.40;;;;;;5062155;28;20058;-45
2021/08/02 11:32:17;;;;;;;1.00;0.70;;;24.30;55.30;;;;;;5071699;28;20036;-48
2021/08/02 11:34:44;;;;;;;2.47;0.93;;;24.30;55.40;;;;;;5054580;28;20033;-46
2021/08/02 11:37:13;;;;;;;2.42;0.98;;;24.30;55.30;;;;;;5050458;28;20029;-47
2021/08/02 11:39:46;;;;;;;1.63;0.90;;;24.40;55.40;;;;;;5058121;28;20025;-47
2021/08/02 11:42:12;;;;;;;1.20;0.63;;;24.40;55.30;;;;;;5063125;28;20115;-46
2021/08/02 11:44:43;;;;;;;2.08;1.02;;;24.40;55.50;;;;;;5071721;28;20029;-51
2021/08/02 11:47:16;;;;;;;2.45;0.85;;;24.40;55.60;;;;;;5071740;28;20389;-45
2021/08/02 11:49:42;;;;;;;4.57;0.88;;;24.40;55.60;;;;;;5065133;28;20445;-47
2021/08/02 11:52:09;;;;;;;2.58;0.88;;;24.30;56.20;;;;;;5059504;28;20029;-45
2021/08/02 11:54:35;;;;;;;1.90;0.70;;;24.30;55.60;;;;;;5051647;28;20462;-52
2021/08/02 11:57:01;;;;;;;1.35;0.90;;;24.30;55.60;;;;;;5051263;28;20029;-47
2021/08/02 11:59:29;;;;;;;1.25;0.95;;;24.30;55.70;;;;;;5058298;28;20045;-48
2021/08/02 12:01:57;;;;;;;3.38;0.90;;;24.30;55.70;;;;;;5056371;28;20408;-46
2021/08/02 12:04:23;;;;;;;1.83;0.80;;;24.30;55.70;;;;;;5050693;28;20033;-46
2021/08/02 12:06:56;;;;;;;2.97;0.88;;;24.40;55.80;;;;;;5050649;28;20068;-46
2021/08/02 12:09:28;;;;;;;2.20;1.00;;;24.30;55.80;;;;;;5042290;28;20477;-47
2021/08/02 12:11:54;;;;;;;1.08;0.80;;;24.30;55.80;;;;;;5050724;28;20044;-45
2021/08/02 12:14:24;;;;;;;1.80;0.90;;;24.30;55.80;;;;;;5070663;28;20024;-45
2021/08/02 12:17:06;;;;;;;0.77;0.60;;;24.30;55.90;;;;;;5070380;28;20032;-45
2021/08/02 12:19:51;;;;;;;1.15;0.70;;;24.30;55.80;;;;;;5063520;28;20069;-47
2021/08/02 12:22:19;;;;;;;2.65;0.80;;;24.30;55.90;;;;;;5051155;28;20082;-47
2021/08/02 12:24:53;;;;;;;0.68;0.50;;;24.30;55.90;;;;;;5050508;28;20029;-46
2021/08/02 12:27:20;;;;;;;3.08;0.65;;;24.30;55.80;;;;;;5051897;28;20102;-45
2021/08/02 12:30:03;;;;;;;1.48;1.05;;;24.30;56.00;;;;;;5050679;28;20021;-44
2021/08/02 12:32:45;;;;;;;1.02;0.73;;;24.30;56.10;;;;;;5051325;28;20348;-46
2021/08/02 12:35:13;;;;;;;1.13;0.82;;;24.30;56.00;;;;;;5049959;28;20033;-50
2021/08/02 12:37:40;;;;;;;2.95;0.88;;;24.30;56.20;;;;;;5046569;28;20458;-52
2021/08/02 12:40:09;;;;;;;1.27;0.70;;;24.30;56.30;;;;;;5064185;28;20028;-48
2021/08/02 12:42:37;;;;;;;1.90;0.63;;;24.30;56.10;;;;;;5036107;28;20494;-44
2021/08/02 12:45:03;;;;;;;1.52;0.70;;;24.30;56.20;;;;;;5055975;28;20078;-47
2021/08/02 12:47:29;;;;;;;1.52;0.80;;;24.30;56.20;;;;;;5055300;28;20474;-46
2021/08/02 12:49:57;;;;;;;1.17;0.60;;;24.30;56.20;;;;;;5062488;28;20033;-46
2021/08/02 12:52:26;;;;;;;0.63;0.63;;;24.30;56.20;;;;;;5066135;28;20024;-47
2021/08/02 12:54:52;;;;;;;0.82;0.60;;;24.30;56.20;;;;;;5046342;28;20057;-47